createdAt,value
2022-09-09T00:01:38.144Z,70.89
2022-09-09T00:06:51.857Z,71.22
2022-09-09T00:11:59.677Z,71.95
2022-09-09T00:17:06.912Z,72.31
2022-09-09T00:22:18.206Z,73.25
2022-09-09T00:27:30.114Z,72.93
2022-09-09T00:32:36.770Z,71.38
2022-09-09T00:37:41.158Z,71.30
2022-09-09T00:42:46.971Z,71.56
2022-09-09T00:47:52.908Z,72.36
2022-09-09T00:53:07.968Z,72.94
2022-09-09T00:58:10.812Z,72.06
2022-09-09T01:03:31.820Z,73.14
2022-09-09T01:09:12.345Z,73.54
2022-09-09T01:14:27.007Z,73.69
2022-09-09T01:19:41.307Z,73.97
2022-09-09T01:25:21.205Z,73.82
2022-09-09T01:30:25.874Z,74.06
2022-09-09T01:35:40.648Z,74.14
2022-09-09T01:40:43.489Z,74.63
2022-09-09T01:45:51.479Z,75.03
2022-09-09T01:50:54.302Z,75.61
2022-09-09T01:56:39.558Z,75.59
2022-09-09T02:01:58.659Z,75.64
2022-09-09T02:07:02.450Z,75.66
2022-09-09T02:12:12.973Z,76.43
2022-09-09T02:17:23.239Z,76.13
2022-09-09T02:22:28.225Z,77.02
2022-09-09T02:27:31.230Z,76.28
2022-09-09T02:32:38.036Z,77.21
2022-09-09T02:37:42.621Z,76.60
2022-09-09T02:42:47.249Z,77.25
2022-09-09T02:48:00.521Z,77.06
2022-09-09T02:53:11.050Z,76.81
2022-09-09T02:58:17.883Z,76.64
2022-09-09T03:03:23.023Z,76.70
2022-09-09T03:08:25.835Z,77.34
2022-09-09T03:13:29.037Z,77.95
2022-09-09T03:18:33.295Z,77.97
2022-09-09T03:23:36.115Z,77.56
2022-09-09T03:28:38.857Z,78.54
2022-09-09T03:33:43.328Z,77.73
2022-09-09T03:38:46.043Z,78.41
2022-09-09T03:43:48.778Z,78.70
2022-09-09T03:48:54.179Z,78.40
2022-09-09T03:53:57.801Z,78.19
2022-09-09T03:59:00.527Z,78.88
2022-09-09T04:04:04.798Z,78.95
2022-09-09T04:09:07.563Z,79.06
2022-09-09T04:14:10.342Z,79.45
2022-09-09T04:19:15.440Z,79.28
2022-09-09T04:24:18.278Z,79.07
2022-09-09T04:29:21.035Z,79.93
2022-09-09T04:34:26.056Z,80.25
2022-09-09T04:39:28.589Z,79.83
2022-09-09T04:44:31.505Z,80.25
2022-09-09T04:49:35.627Z,80.92
2022-09-09T04:54:38.374Z,80.03
2022-09-09T04:59:41.356Z,80.08
2022-09-09T05:04:45.465Z,80.73
2022-09-09T05:09:50.236Z,79.98
2022-09-09T05:14:52.928Z,80.39
2022-09-09T05:19:57.861Z,81.51
2022-09-09T05:25:01.534Z,81.36
2022-09-09T05:30:05.544Z,81.50
2022-09-09T05:35:10.153Z,81.22
2022-09-09T05:40:13.465Z,81.41
2022-09-09T05:45:16.538Z,81.31
2022-09-09T05:50:20.625Z,82.04
2022-09-09T05:55:23.373Z,81.59
2022-09-09T06:00:26.122Z,81.51
2022-09-09T06:05:30.545Z,81.11
2022-09-09T06:10:33.315Z,81.00
2022-09-09T06:15:36.534Z,80.50
2022-09-09T06:20:40.629Z,79.78
2022-09-09T06:25:43.349Z,79.81
2022-09-09T06:30:46.517Z,78.45
2022-09-09T06:35:55.146Z,77.03
2022-09-09T06:40:59.203Z,76.38
2022-09-09T06:46:03.435Z,75.27
2022-09-09T06:51:09.261Z,71.80
2022-09-09T06:56:24.122Z,69.02
2022-09-09T07:01:29.071Z,67.15
2022-09-09T07:06:35.352Z,68.15
2022-09-09T07:11:42.177Z,69.72
2022-09-09T07:16:46.439Z,66.34
2022-09-09T07:21:51.262Z,64.30
2022-09-09T07:26:53.797Z,65.09
2022-09-09T07:31:56.659Z,62.80
2022-09-09T07:37:00.733Z,62.05
2022-09-09T07:42:03.469Z,61.63
2022-09-09T07:47:06.389Z,60.73
2022-09-09T07:52:12.590Z,60.28
2022-09-09T07:57:19.512Z,61.26
2022-09-09T08:02:22.530Z,61.10
2022-09-09T08:07:27.135Z,60.89
2022-09-09T08:12:30.131Z,60.20
2022-09-09T08:17:33.885Z,58.27
2022-09-09T08:22:38.690Z,59.27
2022-09-09T08:27:41.406Z,59.49
2022-09-09T08:32:45.944Z,59.30
2022-09-09T08:37:51.540Z,58.99
2022-09-09T08:42:55.790Z,57.48
2022-09-09T08:48:10.845Z,55.83
2022-09-09T08:53:18.686Z,55.44
2022-09-09T08:58:23.221Z,55.60
2022-09-09T09:03:35.194Z,53.92
2022-09-09T09:08:46.240Z,53.99
2022-09-09T09:13:54.528Z,53.72
2022-09-09T09:18:58.385Z,52.81
2022-09-09T09:24:03.646Z,52.17
2022-09-09T09:29:14.042Z,52.02
2022-09-09T09:34:18.421Z,52.17
2022-09-09T09:44:50.492Z,51.37
2022-09-09T09:49:54.482Z,51.40
2022-09-09T09:55:04.034Z,52.54
2022-09-09T10:00:17.689Z,50.69
2022-09-09T10:05:26.859Z,50.90
2022-09-09T10:10:46.187Z,50.86
2022-09-09T10:16:05.186Z,51.75
2022-09-09T10:21:21.677Z,52.10
2022-09-09T10:26:40.417Z,50.73
2022-09-09T10:31:54.281Z,50.17
2022-09-09T10:36:57.296Z,49.21
2022-09-09T10:42:08.118Z,48.47
2022-09-09T10:47:51.962Z,47.79
2022-09-09T10:53:04.549Z,46.35
2022-09-09T10:58:14.528Z,48.29
2022-09-09T11:03:22.032Z,47.51
2022-09-09T11:08:27.897Z,46.96
2022-09-09T11:13:39.125Z,48.76
2022-09-09T11:18:46.141Z,46.75
2022-09-09T11:23:53.431Z,45.87
2022-09-09T11:29:24.113Z,45.38
2022-09-09T11:34:51.252Z,45.67
2022-09-09T11:40:19.501Z,45.43
2022-09-09T11:45:28.228Z,45.86
2022-09-09T11:50:37.459Z,45.45
2022-09-09T11:55:40.218Z,44.82
2022-09-09T12:00:46.513Z,44.17
2022-09-09T12:05:49.418Z,44.56
2022-09-09T12:10:57.818Z,44.22
2022-09-09T12:16:03.430Z,44.85
2022-09-09T12:21:16.113Z,45.12
2022-09-09T12:26:30.345Z,45.67
2022-09-09T12:31:45.550Z,47.09
2022-09-09T12:36:56.595Z,47.95
2022-09-09T12:41:59.574Z,49.75
2022-09-09T12:47:05.794Z,49.55
2022-09-09T12:52:15.396Z,48.87
2022-09-09T12:57:18.386Z,49.61
2022-09-09T13:02:25.267Z,47.98
2022-09-09T13:07:28.913Z,47.23
2022-09-09T13:12:31.822Z,46.45
2022-09-09T13:17:37.030Z,46.64
2022-09-09T13:22:41.606Z,48.04
2022-09-09T13:27:54.922Z,47.93
2022-09-09T13:33:23.621Z,45.42
2022-09-09T13:38:27.606Z,46.21
2022-09-09T13:43:32.962Z,45.74
2022-09-09T13:48:37.255Z,44.07
2022-09-09T13:53:39.949Z,45.15
2022-09-09T13:58:42.679Z,44.42
2022-09-09T14:03:46.795Z,44.70
2022-09-09T14:08:51.182Z,45.00
2022-09-09T14:13:53.938Z,45.81
2022-09-09T14:18:58.200Z,44.53
2022-09-09T14:24:00.714Z,45.80
2022-09-09T14:29:03.782Z,46.55
2022-09-09T14:34:08.734Z,46.54
2022-09-09T14:39:11.461Z,45.66
2022-09-09T14:44:14.198Z,45.24
2022-09-09T14:49:18.490Z,45.03
2022-09-09T14:54:22.225Z,44.74
2022-09-09T14:59:25.049Z,44.40
2022-09-09T15:04:29.197Z,41.68
2022-09-09T15:09:31.722Z,42.20
2022-09-09T15:14:35.078Z,40.48
2022-09-09T15:19:39.368Z,40.54
2022-09-09T15:24:42.136Z,39.45
2022-09-09T15:29:45.159Z,38.68
2022-09-09T15:34:52.329Z,38.23
2022-09-09T15:39:55.215Z,38.63
2022-09-09T15:44:58.030Z,37.68
2022-09-09T15:50:02.104Z,37.87
2022-09-09T15:55:04.869Z,38.80
2022-09-09T16:00:08.070Z,39.65
2022-09-09T16:05:12.019Z,39.55
2022-09-09T16:10:14.820Z,38.88
2022-09-09T16:15:17.486Z,39.16
2022-09-09T16:20:21.404Z,40.25
2022-09-09T16:25:23.885Z,40.92
2022-09-09T16:30:26.401Z,40.89
2022-09-09T16:35:30.961Z,41.55
2022-09-09T16:40:35.850Z,42.31
2022-09-09T16:45:43.187Z,42.73
2022-09-09T16:50:47.086Z,42.98
2022-09-09T16:55:49.640Z,43.32
2022-09-09T17:00:52.129Z,43.83
2022-09-09T17:05:56.042Z,44.14
2022-09-09T17:10:59.074Z,44.26
2022-09-09T17:16:05.674Z,44.71
2022-09-09T17:21:14.037Z,44.93
2022-09-09T17:26:17.625Z,45.37
2022-09-09T17:31:20.491Z,45.53
2022-09-09T17:36:25.527Z,45.91
2022-09-09T17:41:30.121Z,45.96
2022-09-09T17:46:35.005Z,46.18
2022-09-09T17:51:39.190Z,46.56
2022-09-09T17:56:42.221Z,46.73
2022-09-09T18:01:46.297Z,48.26
2022-09-09T18:06:51.252Z,53.09
2022-09-09T18:11:54.797Z,56.00
2022-09-09T18:16:57.911Z,56.00
2022-09-09T18:22:02.839Z,55.69
2022-09-09T18:27:05.546Z,56.88
2022-09-09T18:32:08.254Z,57.84
2022-09-09T18:37:12.261Z,57.46
2022-09-09T18:42:14.773Z,57.43
2022-09-09T18:47:17.903Z,57.12
2022-09-09T18:52:21.781Z,58.03
2022-09-09T18:57:24.310Z,58.58
2022-09-09T19:02:26.935Z,58.52
2022-09-09T19:07:30.817Z,58.22
2022-09-09T19:12:33.344Z,57.87
2022-09-09T19:17:36.589Z,57.62
2022-09-09T19:22:40.482Z,57.51
2022-09-09T19:27:43.766Z,57.74
2022-09-09T19:32:53.705Z,57.49
2022-09-09T19:37:58.674Z,58.24
2022-09-09T19:43:01.183Z,58.40
2022-09-09T19:48:03.971Z,58.62
2022-09-09T19:53:07.870Z,58.89
2022-09-09T19:58:10.394Z,58.99
2022-09-09T20:03:19.326Z,59.28
2022-09-09T20:08:23.664Z,59.44
2022-09-09T20:13:26.536Z,60.08
2022-09-09T20:18:32.266Z,60.75
2022-09-09T20:23:37.241Z,61.41
2022-09-09T20:28:40.675Z,61.43
2022-09-09T20:33:44.090Z,61.46
2022-09-09T20:38:48.964Z,61.93
2022-09-09T20:43:53.023Z,61.81
2022-09-09T20:49:00.799Z,62.13
2022-09-09T20:54:07.295Z,63.31
2022-09-09T20:59:11.990Z,63.01
2022-09-09T21:04:15.404Z,63.03
2022-09-09T21:09:20.396Z,62.89
2022-09-09T21:14:23.164Z,63.26
2022-09-09T21:19:26.086Z,63.10
2022-09-09T21:24:29.965Z,64.02
2022-09-09T21:29:32.532Z,64.41
2022-09-09T21:34:35.401Z,63.91
2022-09-09T21:39:39.399Z,64.29
2022-09-09T21:44:41.958Z,64.89
2022-09-09T21:49:44.777Z,64.71
2022-09-09T21:54:48.889Z,64.75
2022-09-09T21:59:52.891Z,64.82
2022-09-09T22:04:55.445Z,66.19
2022-09-09T22:09:59.545Z,65.95
2022-09-09T22:15:02.112Z,66.04
2022-09-09T22:20:05.626Z,66.01
2022-09-09T22:25:10.028Z,66.95
2022-09-09T22:30:13.605Z,66.96
2022-09-09T22:35:16.164Z,66.68
2022-09-09T22:40:20.144Z,67.21
2022-09-09T22:45:22.745Z,67.00
2022-09-09T22:50:25.776Z,66.93
2022-09-09T22:55:29.677Z,67.34
2022-09-09T23:00:32.241Z,67.85
2022-09-09T23:05:36.194Z,67.98
2022-09-09T23:10:43.130Z,67.67
2022-09-09T23:15:46.217Z,67.13
2022-09-09T23:20:57.575Z,68.04
2022-09-09T23:26:04.136Z,68.36
2022-09-09T23:31:09.831Z,68.82
2022-09-09T23:36:13.136Z,68.49
2022-09-09T23:41:21.091Z,69.38
2022-09-09T23:46:25.165Z,69.04
2022-09-09T23:51:30.554Z,68.63
2022-09-09T23:56:36.973Z,68.47
